<?xml version="1.0" encoding="UTF-8" standalone="yes"?>
<gpx version="1.1" creator="MagicMaps Tour Explorer"
     xmlns:xsi="http://www.w3.org/2001/XMLSchema-instance"
     xmlns="http://www.topografix.com/GPX/1/1">
  <trk>
    <name>aeusserer_nockenkopf_w</name>
    <trkseg>
      <trkpt lat="46.805042298" lon="10.477959307">
        <ele>1953.4</ele>
      </trkpt>
      <trkpt lat="46.805624814" lon="10.477451013">
        <ele>1968.9</ele>
      </trkpt>
      <trkpt lat="46.805756000" lon="10.477406000">
        <ele>1969.4</ele>
        <time>2015-03-14T07:15:25</time>
      </trkpt>
      <trkpt lat="46.805782000" lon="10.477419000">
        <ele>1980.0</ele>
        <time>2015-03-14T07:16:40</time>
      </trkpt>
      <trkpt lat="46.805761000" lon="10.477442000">
        <ele>1980.5</ele>
        <time>2015-03-14T07:18:29</time>
      </trkpt>
      <trkpt lat="46.805790000" lon="10.477451000">
        <ele>1980.5</ele>
        <time>2015-03-14T07:19:34</time>
      </trkpt>
      <trkpt lat="46.805887000" lon="10.477413000">
        <ele>1981.4</ele>
        <time>2015-03-14T07:21:22</time>
      </trkpt>
      <trkpt lat="46.806030000" lon="10.477233000">
        <ele>1986.2</ele>
        <time>2015-03-14T07:25:08</time>
      </trkpt>
      <trkpt lat="46.806210000" lon="10.477064000">
        <ele>1990.5</ele>
        <time>2015-03-14T07:29:30</time>
      </trkpt>
      <trkpt lat="46.806324000" lon="10.476906000">
        <ele>1993.4</ele>
        <time>2015-03-14T07:30:30</time>
      </trkpt>
      <trkpt lat="46.806460000" lon="10.476828000">
        <ele>1998.7</ele>
        <time>2015-03-14T07:31:01</time>
      </trkpt>
      <trkpt lat="46.806524000" lon="10.476757000">
        <ele>2000.6</ele>
        <time>2015-03-14T07:31:15</time>
      </trkpt>
      <trkpt lat="46.806582000" lon="10.476636000">
        <ele>2002.1</ele>
        <time>2015-03-14T07:31:34</time>
      </trkpt>
      <trkpt lat="46.806634000" lon="10.476285000">
        <ele>2009.3</ele>
        <time>2015-03-14T07:32:22</time>
      </trkpt>
      <trkpt lat="46.806884000" lon="10.476223000">
        <ele>2016.0</ele>
        <time>2015-03-14T07:33:13</time>
      </trkpt>
      <trkpt lat="46.806907000" lon="10.476186000">
        <ele>2017.5</ele>
        <time>2015-03-14T07:33:28</time>
      </trkpt>
      <trkpt lat="46.806904000" lon="10.476032000">
        <ele>2019.9</ele>
        <time>2015-03-14T07:33:45</time>
      </trkpt>
      <trkpt lat="46.806848000" lon="10.475644000">
        <ele>2025.6</ele>
        <time>2015-03-14T07:34:30</time>
      </trkpt>
      <trkpt lat="46.806851000" lon="10.475493000">
        <ele>2027.6</ele>
        <time>2015-03-14T07:34:50</time>
      </trkpt>
      <trkpt lat="46.806890000" lon="10.475429000">
        <ele>2029.0</ele>
        <time>2015-03-14T07:35:03</time>
      </trkpt>
      <trkpt lat="46.806972000" lon="10.475425000">
        <ele>2030.9</ele>
        <time>2015-03-14T07:35:19</time>
      </trkpt>
      <trkpt lat="46.807036000" lon="10.475364000">
        <ele>2033.8</ele>
        <time>2015-03-14T07:35:39</time>
      </trkpt>
      <trkpt lat="46.806967000" lon="10.474813000">
        <ele>2040.5</ele>
        <time>2015-03-14T07:36:54</time>
      </trkpt>
      <trkpt lat="46.806981000" lon="10.474739000">
        <ele>2042.0</ele>
        <time>2015-03-14T07:37:09</time>
      </trkpt>
      <trkpt lat="46.807155000" lon="10.474669000">
        <ele>2045.3</ele>
        <time>2015-03-14T07:37:52</time>
      </trkpt>
      <trkpt lat="46.807198000" lon="10.474614000">
        <ele>2047.7</ele>
        <time>2015-03-14T07:38:08</time>
      </trkpt>
      <trkpt lat="46.807087000" lon="10.474167000">
        <ele>2055.0</ele>
        <time>2015-03-14T07:39:29</time>
      </trkpt>
      <trkpt lat="46.807318000" lon="10.474034000">
        <ele>2060.2</ele>
        <time>2015-03-14T07:40:31</time>
      </trkpt>
      <trkpt lat="46.807247000" lon="10.473671000">
        <ele>2067.0</ele>
        <time>2015-03-14T07:41:31</time>
      </trkpt>
      <trkpt lat="46.807315000" lon="10.473642000">
        <ele>2068.9</ele>
        <time>2015-03-14T07:41:47</time>
      </trkpt>
      <trkpt lat="46.807346000" lon="10.473592000">
        <ele>2069.4</ele>
        <time>2015-03-14T07:42:01</time>
      </trkpt>
      <trkpt lat="46.807339000" lon="10.473609000">
        <ele>2068.9</ele>
        <time>2015-03-14T07:42:44</time>
      </trkpt>
      <trkpt lat="46.807281000" lon="10.473440000">
        <ele>2072.7</ele>
        <time>2015-03-14T07:43:40</time>
      </trkpt>
      <trkpt lat="46.807245000" lon="10.473213000">
        <ele>2076.6</ele>
        <time>2015-03-14T07:44:23</time>
      </trkpt>
      <trkpt lat="46.807320000" lon="10.473151000">
        <ele>2078.5</ele>
        <time>2015-03-14T07:44:56</time>
      </trkpt>
      <trkpt lat="46.807440000" lon="10.473152000">
        <ele>2081.9</ele>
        <time>2015-03-14T07:45:27</time>
      </trkpt>
      <trkpt lat="46.807415000" lon="10.473014000">
        <ele>2085.2</ele>
        <time>2015-03-14T07:45:52</time>
      </trkpt>
      <trkpt lat="46.807367000" lon="10.472881000">
        <ele>2087.2</ele>
        <time>2015-03-14T07:46:18</time>
      </trkpt>
      <trkpt lat="46.807374000" lon="10.472817000">
        <ele>2088.1</ele>
        <time>2015-03-14T07:46:33</time>
      </trkpt>
      <trkpt lat="46.807456000" lon="10.472782000">
        <ele>2089.6</ele>
        <time>2015-03-14T07:46:58</time>
      </trkpt>
      <trkpt lat="46.807466000" lon="10.472725000">
        <ele>2092.0</ele>
        <time>2015-03-14T07:47:12</time>
      </trkpt>
      <trkpt lat="46.807401000" lon="10.472530000">
        <ele>2095.8</ele>
        <time>2015-03-14T07:47:55</time>
      </trkpt>
      <trkpt lat="46.807583000" lon="10.472360000">
        <ele>2101.6</ele>
        <time>2015-03-14T07:49:15</time>
      </trkpt>
      <trkpt lat="46.807447000" lon="10.472082000">
        <ele>2107.8</ele>
        <time>2015-03-14T07:50:21</time>
      </trkpt>
      <trkpt lat="46.807451000" lon="10.472029000">
        <ele>2108.8</ele>
        <time>2015-03-14T07:50:33</time>
      </trkpt>
      <trkpt lat="46.807673000" lon="10.471911000">
        <ele>2113.6</ele>
        <time>2015-03-14T07:51:29</time>
      </trkpt>
      <trkpt lat="46.807869000" lon="10.471871000">
        <ele>2118.4</ele>
        <time>2015-03-14T07:52:20</time>
      </trkpt>
      <trkpt lat="46.807866000" lon="10.471820000">
        <ele>2119.4</ele>
        <time>2015-03-14T07:52:34</time>
      </trkpt>
      <trkpt lat="46.807800000" lon="10.471657000">
        <ele>2122.7</ele>
        <time>2015-03-14T07:53:10</time>
      </trkpt>
      <trkpt lat="46.807775000" lon="10.471511000">
        <ele>2126.1</ele>
        <time>2015-03-14T07:53:39</time>
      </trkpt>
      <trkpt lat="46.807960000" lon="10.471436000">
        <ele>2130.4</ele>
        <time>2015-03-14T07:54:27</time>
      </trkpt>
      <trkpt lat="46.808032000" lon="10.471344000">
        <ele>2132.3</ele>
        <time>2015-03-14T07:54:54</time>
      </trkpt>
      <trkpt lat="46.808074000" lon="10.471324000">
        <ele>2133.8</ele>
        <time>2015-03-14T07:55:07</time>
      </trkpt>
      <trkpt lat="46.808186000" lon="10.471390000">
        <ele>2137.1</ele>
        <time>2015-03-14T07:59:13</time>
      </trkpt>
      <trkpt lat="46.808166000" lon="10.471184000">
        <ele>2138.1</ele>
        <time>2015-03-14T07:59:43</time>
      </trkpt>
      <trkpt lat="46.808192000" lon="10.471148000">
        <ele>2139.6</ele>
        <time>2015-03-14T07:59:59</time>
      </trkpt>
      <trkpt lat="46.808392000" lon="10.471322000">
        <ele>2144.8</ele>
        <time>2015-03-14T08:00:59</time>
      </trkpt>
      <trkpt lat="46.808429000" lon="10.471229000">
        <ele>2145.8</ele>
        <time>2015-03-14T08:01:16</time>
      </trkpt>
      <trkpt lat="46.808436000" lon="10.470968000">
        <ele>2150.6</ele>
        <time>2015-03-14T08:02:00</time>
      </trkpt>
      <trkpt lat="46.808451000" lon="10.470906000">
        <ele>2151.6</ele>
        <time>2015-03-14T08:02:14</time>
      </trkpt>
      <trkpt lat="46.808488000" lon="10.470884000">
        <ele>2153.0</ele>
        <time>2015-03-14T08:02:27</time>
      </trkpt>
      <trkpt lat="46.808642000" lon="10.470944000">
        <ele>2157.3</ele>
        <time>2015-03-14T08:03:09</time>
      </trkpt>
      <trkpt lat="46.808589000" lon="10.470521000">
        <ele>2164.5</ele>
        <time>2015-03-14T08:04:32</time>
      </trkpt>
      <trkpt lat="46.808601000" lon="10.470454000">
        <ele>2166.5</ele>
        <time>2015-03-14T08:04:46</time>
      </trkpt>
      <trkpt lat="46.808795000" lon="10.470535000">
        <ele>2170.3</ele>
        <time>2015-03-14T08:05:53</time>
      </trkpt>
      <trkpt lat="46.808856000" lon="10.470540000">
        <ele>2172.2</ele>
        <time>2015-03-14T08:06:05</time>
      </trkpt>
      <trkpt lat="46.808863000" lon="10.470462000">
        <ele>2173.7</ele>
        <time>2015-03-14T08:06:25</time>
      </trkpt>
      <trkpt lat="46.808843000" lon="10.470268000">
        <ele>2176.1</ele>
        <time>2015-03-14T08:06:54</time>
      </trkpt>
      <trkpt lat="46.808875000" lon="10.470232000">
        <ele>2178.5</ele>
        <time>2015-03-14T08:07:10</time>
      </trkpt>
      <trkpt lat="46.808979000" lon="10.470312000">
        <ele>2180.9</ele>
        <time>2015-03-14T08:07:55</time>
      </trkpt>
      <trkpt lat="46.808965000" lon="10.469962000">
        <ele>2187.1</ele>
        <time>2015-03-14T08:08:52</time>
      </trkpt>
      <trkpt lat="46.809059000" lon="10.470026000">
        <ele>2188.6</ele>
        <time>2015-03-14T08:09:21</time>
      </trkpt>
      <trkpt lat="46.809178000" lon="10.470172000">
        <ele>2191.0</ele>
        <time>2015-03-14T08:10:05</time>
      </trkpt>
      <trkpt lat="46.809144000" lon="10.469824000">
        <ele>2196.3</ele>
        <time>2015-03-14T08:10:58</time>
      </trkpt>
      <trkpt lat="46.809157000" lon="10.469808000">
        <ele>2197.2</ele>
        <time>2015-03-14T08:11:20</time>
      </trkpt>
      <trkpt lat="46.809338000" lon="10.469978000">
        <ele>2202.5</ele>
        <time>2015-03-14T08:12:21</time>
      </trkpt>
      <trkpt lat="46.809297000" lon="10.469624000">
        <ele>2208.3</ele>
        <time>2015-03-14T08:13:46</time>
      </trkpt>
      <trkpt lat="46.809345000" lon="10.469630000">
        <ele>2210.2</ele>
        <time>2015-03-14T08:13:58</time>
      </trkpt>
      <trkpt lat="46.809486000" lon="10.469764000">
        <ele>2214.1</ele>
        <time>2015-03-14T08:14:42</time>
      </trkpt>
      <trkpt lat="46.809503000" lon="10.469758000">
        <ele>2214.5</ele>
        <time>2015-03-14T08:14:54</time>
      </trkpt>
      <trkpt lat="46.809484000" lon="10.469673000">
        <ele>2214.5</ele>
        <time>2015-03-14T08:15:07</time>
      </trkpt>
      <trkpt lat="46.809490000" lon="10.469547000">
        <ele>2217.4</ele>
        <time>2015-03-14T08:15:39</time>
      </trkpt>
      <trkpt lat="46.809640000" lon="10.469751000">
        <ele>2220.3</ele>
        <time>2015-03-14T08:16:48</time>
      </trkpt>
      <trkpt lat="46.809663000" lon="10.469713000">
        <ele>2221.3</ele>
        <time>2015-03-14T08:17:01</time>
      </trkpt>
      <trkpt lat="46.809664000" lon="10.469632000">
        <ele>2222.7</ele>
        <time>2015-03-14T08:17:14</time>
      </trkpt>
      <trkpt lat="46.809637000" lon="10.469495000">
        <ele>2225.1</ele>
        <time>2015-03-14T08:18:09</time>
      </trkpt>
      <trkpt lat="46.809705000" lon="10.469530000">
        <ele>2228.0</ele>
        <time>2015-03-14T08:19:24</time>
      </trkpt>
      <trkpt lat="46.809736000" lon="10.469507000">
        <ele>2229.0</ele>
        <time>2015-03-14T08:19:41</time>
      </trkpt>
      <trkpt lat="46.809666000" lon="10.469186000">
        <ele>2233.8</ele>
        <time>2015-03-14T08:20:46</time>
      </trkpt>
      <trkpt lat="46.809878000" lon="10.469336000">
        <ele>2238.1</ele>
        <time>2015-03-14T08:21:56</time>
      </trkpt>
      <trkpt lat="46.809897000" lon="10.469263000">
        <ele>2238.6</ele>
        <time>2015-03-14T08:25:18</time>
      </trkpt>
      <trkpt lat="46.809853000" lon="10.469118000">
        <ele>2241.0</ele>
        <time>2015-03-14T08:26:22</time>
      </trkpt>
      <trkpt lat="46.809932000" lon="10.469161000">
        <ele>2243.4</ele>
        <time>2015-03-14T08:26:49</time>
      </trkpt>
      <trkpt lat="46.809941000" lon="10.469137000">
        <ele>2242.9</ele>
        <time>2015-03-14T08:27:02</time>
      </trkpt>
      <trkpt lat="46.809900000" lon="10.468889000">
        <ele>2249.1</ele>
        <time>2015-03-14T08:28:00</time>
      </trkpt>
      <trkpt lat="46.809970000" lon="10.468922000">
        <ele>2251.1</ele>
        <time>2015-03-14T08:28:38</time>
      </trkpt>
      <trkpt lat="46.809944000" lon="10.468803000">
        <ele>2253.5</ele>
        <time>2015-03-14T08:29:08</time>
      </trkpt>
      <trkpt lat="46.810003000" lon="10.468757000">
        <ele>2257.3</ele>
        <time>2015-03-14T08:31:03</time>
      </trkpt>
      <trkpt lat="46.810169000" lon="10.468926000">
        <ele>2261.2</ele>
        <time>2015-03-14T08:31:47</time>
      </trkpt>
      <trkpt lat="46.810249000" lon="10.468969000">
        <ele>2262.6</ele>
        <time>2015-03-14T08:32:03</time>
      </trkpt>
      <trkpt lat="46.810211000" lon="10.468873000">
        <ele>2266.0</ele>
        <time>2015-03-14T08:33:26</time>
      </trkpt>
      <trkpt lat="46.810201000" lon="10.468736000">
        <ele>2267.9</ele>
        <time>2015-03-14T08:34:24</time>
      </trkpt>
      <trkpt lat="46.810249000" lon="10.468792000">
        <ele>2268.8</ele>
        <time>2015-03-14T08:34:38</time>
      </trkpt>
      <trkpt lat="46.810341000" lon="10.468805000">
        <ele>2270.3</ele>
        <time>2015-03-14T08:35:10</time>
      </trkpt>
      <trkpt lat="46.810429000" lon="10.468920000">
        <ele>2273.7</ele>
        <time>2015-03-14T08:35:38</time>
      </trkpt>
      <trkpt lat="46.810547000" lon="10.469181000">
        <ele>2276.1</ele>
        <time>2015-03-14T08:36:20</time>
      </trkpt>
      <trkpt lat="46.810577000" lon="10.469321000">
        <ele>2277.5</ele>
        <time>2015-03-14T08:36:38</time>
      </trkpt>
      <trkpt lat="46.810600000" lon="10.469642000">
        <ele>2279.9</ele>
        <time>2015-03-14T08:37:22</time>
      </trkpt>
      <trkpt lat="46.810587000" lon="10.469904000">
        <ele>2282.8</ele>
        <time>2015-03-14T08:37:58</time>
      </trkpt>
      <trkpt lat="46.810666000" lon="10.470078000">
        <ele>2284.2</ele>
        <time>2015-03-14T08:38:59</time>
      </trkpt>
      <trkpt lat="46.810747000" lon="10.470126000">
        <ele>2284.7</ele>
        <time>2015-03-14T08:39:39</time>
      </trkpt>
      <trkpt lat="46.811036000" lon="10.470097000">
        <ele>2287.6</ele>
        <time>2015-03-14T08:40:48</time>
      </trkpt>
      <trkpt lat="46.811122000" lon="10.470014000">
        <ele>2287.6</ele>
        <time>2015-03-14T08:41:04</time>
      </trkpt>
      <trkpt lat="46.811218000" lon="10.469856000">
        <ele>2290.0</ele>
        <time>2015-03-14T08:41:34</time>
      </trkpt>
      <trkpt lat="46.811284000" lon="10.469790000">
        <ele>2290.0</ele>
        <time>2015-03-14T08:41:51</time>
      </trkpt>
      <trkpt lat="46.811397000" lon="10.469834000">
        <ele>2291.4</ele>
        <time>2015-03-14T08:42:09</time>
      </trkpt>
      <trkpt lat="46.811438000" lon="10.469906000">
        <ele>2291.9</ele>
        <time>2015-03-14T08:42:23</time>
      </trkpt>
      <trkpt lat="46.811479000" lon="10.469929000">
        <ele>2293.4</ele>
        <time>2015-03-14T08:42:35</time>
      </trkpt>
      <trkpt lat="46.811497000" lon="10.469786000">
        <ele>2290.5</ele>
        <time>2015-03-14T08:43:27</time>
      </trkpt>
      <trkpt lat="46.811479000" lon="10.469788000">
        <ele>2295.3</ele>
        <time>2015-03-14T08:44:11</time>
      </trkpt>
      <trkpt lat="46.811603000" lon="10.469811000">
        <ele>2298.6</ele>
        <time>2015-03-14T08:47:09</time>
      </trkpt>
      <trkpt lat="46.811642000" lon="10.469566000">
        <ele>2305.4</ele>
        <time>2015-03-14T08:47:58</time>
      </trkpt>
      <trkpt lat="46.811773000" lon="10.469556000">
        <ele>2309.2</ele>
        <time>2015-03-14T08:48:24</time>
      </trkpt>
      <trkpt lat="46.811811000" lon="10.469526000">
        <ele>2311.6</ele>
        <time>2015-03-14T08:48:37</time>
      </trkpt>
      <trkpt lat="46.811803000" lon="10.469416000">
        <ele>2313.5</ele>
        <time>2015-03-14T08:49:16</time>
      </trkpt>
      <trkpt lat="46.811825000" lon="10.469397000">
        <ele>2314.0</ele>
        <time>2015-03-14T08:49:29</time>
      </trkpt>
      <trkpt lat="46.811924000" lon="10.469427000">
        <ele>2315.5</ele>
        <time>2015-03-14T08:50:01</time>
      </trkpt>
      <trkpt lat="46.811937000" lon="10.469381000">
        <ele>2317.4</ele>
        <time>2015-03-14T08:50:16</time>
      </trkpt>
      <trkpt lat="46.811920000" lon="10.469306000">
        <ele>2319.3</ele>
        <time>2015-03-14T08:50:28</time>
      </trkpt>
      <trkpt lat="46.811921000" lon="10.468874000">
        <ele>2324.1</ele>
        <time>2015-03-14T08:52:23</time>
      </trkpt>
      <trkpt lat="46.811979000" lon="10.468823000">
        <ele>2326.5</ele>
        <time>2015-03-14T08:52:40</time>
      </trkpt>
      <trkpt lat="46.812186000" lon="10.469009000">
        <ele>2332.8</ele>
        <time>2015-03-14T08:53:27</time>
      </trkpt>
      <trkpt lat="46.812207000" lon="10.468971000">
        <ele>2334.2</ele>
        <time>2015-03-14T08:53:36</time>
      </trkpt>
      <trkpt lat="46.812220000" lon="10.468808000">
        <ele>2337.1</ele>
        <time>2015-03-14T08:54:28</time>
      </trkpt>
      <trkpt lat="46.812221000" lon="10.468605000">
        <ele>2339.0</ele>
        <time>2015-03-14T08:55:02</time>
      </trkpt>
      <trkpt lat="46.812338000" lon="10.468665000">
        <ele>2342.9</ele>
        <time>2015-03-14T08:55:29</time>
      </trkpt>
      <trkpt lat="46.812320000" lon="10.468409000">
        <ele>2344.8</ele>
        <time>2015-03-14T08:56:02</time>
      </trkpt>
      <trkpt lat="46.812373000" lon="10.468430000">
        <ele>2346.7</ele>
        <time>2015-03-14T08:56:31</time>
      </trkpt>
      <trkpt lat="46.812532000" lon="10.468592000">
        <ele>2351.0</ele>
        <time>2015-03-14T08:57:43</time>
      </trkpt>
      <trkpt lat="46.812647000" lon="10.468632000">
        <ele>2353.9</ele>
        <time>2015-03-14T08:58:12</time>
      </trkpt>
      <trkpt lat="46.812636000" lon="10.468531000">
        <ele>2355.4</ele>
        <time>2015-03-14T08:58:28</time>
      </trkpt>
      <trkpt lat="46.812647000" lon="10.468345000">
        <ele>2357.8</ele>
        <time>2015-03-14T08:59:02</time>
      </trkpt>
      <trkpt lat="46.812718000" lon="10.468089000">
        <ele>2361.1</ele>
        <time>2015-03-14T08:59:37</time>
      </trkpt>
      <trkpt lat="46.812726000" lon="10.467965000">
        <ele>2363.1</ele>
        <time>2015-03-14T08:59:53</time>
      </trkpt>
      <trkpt lat="46.812840000" lon="10.467912000">
        <ele>2366.9</ele>
        <time>2015-03-14T09:00:20</time>
      </trkpt>
      <trkpt lat="46.812880000" lon="10.467870000">
        <ele>2367.9</ele>
        <time>2015-03-14T09:00:31</time>
      </trkpt>
      <trkpt lat="46.812963000" lon="10.467878000">
        <ele>2370.3</ele>
        <time>2015-03-14T09:00:48</time>
      </trkpt>
      <trkpt lat="46.813012000" lon="10.467847000">
        <ele>2373.2</ele>
        <time>2015-03-14T09:01:02</time>
      </trkpt>
      <trkpt lat="46.813051000" lon="10.467655000">
        <ele>2376.0</ele>
        <time>2015-03-14T09:01:31</time>
      </trkpt>
      <trkpt lat="46.813078000" lon="10.467671000">
        <ele>2376.5</ele>
        <time>2015-03-14T09:01:59</time>
      </trkpt>
      <trkpt lat="46.813234000" lon="10.467624000">
        <ele>2381.3</ele>
        <time>2015-03-14T09:03:33</time>
      </trkpt>
      <trkpt lat="46.813323000" lon="10.467627000">
        <ele>2383.7</ele>
        <time>2015-03-14T09:03:48</time>
      </trkpt>
      <trkpt lat="46.813358000" lon="10.467603000">
        <ele>2385.2</ele>
        <time>2015-03-14T09:04:06</time>
      </trkpt>
      <trkpt lat="46.813406000" lon="10.467521000">
        <ele>2386.6</ele>
        <time>2015-03-14T09:04:18</time>
      </trkpt>
      <trkpt lat="46.813430000" lon="10.467417000">
        <ele>2388.5</ele>
        <time>2015-03-14T09:04:30</time>
      </trkpt>
      <trkpt lat="46.813421000" lon="10.467285000">
        <ele>2389.5</ele>
        <time>2015-03-14T09:04:45</time>
      </trkpt>
      <trkpt lat="46.813437000" lon="10.467206000">
        <ele>2390.9</ele>
        <time>2015-03-14T09:05:00</time>
      </trkpt>
      <trkpt lat="46.813728000" lon="10.467198000">
        <ele>2396.7</ele>
        <time>2015-03-14T09:05:55</time>
      </trkpt>
      <trkpt lat="46.813844000" lon="10.467221000">
        <ele>2398.1</ele>
        <time>2015-03-14T09:06:22</time>
      </trkpt>
      <trkpt lat="46.813865000" lon="10.467109000">
        <ele>2401.5</ele>
        <time>2015-03-14T09:06:39</time>
      </trkpt>
      <trkpt lat="46.813848000" lon="10.466927000">
        <ele>2403.9</ele>
        <time>2015-03-14T09:07:04</time>
      </trkpt>
      <trkpt lat="46.813874000" lon="10.466901000">
        <ele>2405.4</ele>
        <time>2015-03-14T09:07:17</time>
      </trkpt>
      <trkpt lat="46.813992000" lon="10.466876000">
        <ele>2409.7</ele>
        <time>2015-03-14T09:07:59</time>
      </trkpt>
      <trkpt lat="46.813965000" lon="10.466616000">
        <ele>2414.0</ele>
        <time>2015-03-14T09:08:30</time>
      </trkpt>
      <trkpt lat="46.813995000" lon="10.466599000">
        <ele>2414.5</ele>
        <time>2015-03-14T09:08:45</time>
      </trkpt>
      <trkpt lat="46.814155000" lon="10.466669000">
        <ele>2417.9</ele>
        <time>2015-03-14T09:09:18</time>
      </trkpt>
      <trkpt lat="46.814185000" lon="10.466602000">
        <ele>2418.8</ele>
        <time>2015-03-14T09:09:35</time>
      </trkpt>
      <trkpt lat="46.814177000" lon="10.466469000">
        <ele>2419.8</ele>
        <time>2015-03-14T09:09:50</time>
      </trkpt>
      <trkpt lat="46.814195000" lon="10.466066000">
        <ele>2425.1</ele>
        <time>2015-03-14T09:10:43</time>
      </trkpt>
      <trkpt lat="46.814226000" lon="10.466040000">
        <ele>2427.0</ele>
        <time>2015-03-14T09:10:58</time>
      </trkpt>
      <trkpt lat="46.814491000" lon="10.466123000">
        <ele>2432.3</ele>
        <time>2015-03-14T09:12:52</time>
      </trkpt>
      <trkpt lat="46.814714000" lon="10.466114000">
        <ele>2436.6</ele>
        <time>2015-03-14T09:13:50</time>
      </trkpt>
      <trkpt lat="46.814720000" lon="10.465843000">
        <ele>2442.4</ele>
        <time>2015-03-14T09:14:32</time>
      </trkpt>
      <trkpt lat="46.814776000" lon="10.465617000">
        <ele>2446.2</ele>
        <time>2015-03-14T09:15:06</time>
      </trkpt>
      <trkpt lat="46.814824000" lon="10.465525000">
        <ele>2447.2</ele>
        <time>2015-03-14T09:15:21</time>
      </trkpt>
      <trkpt lat="46.814986000" lon="10.465343000">
        <ele>2451.5</ele>
        <time>2015-03-14T09:16:04</time>
      </trkpt>
      <trkpt lat="46.815690000" lon="10.464443000">
        <ele>2464.0</ele>
        <time>2015-03-14T09:18:49</time>
      </trkpt>
      <trkpt lat="46.816226000" lon="10.463895000">
        <ele>2477.0</ele>
        <time>2015-03-14T09:20:59</time>
      </trkpt>
      <trkpt lat="46.816686000" lon="10.463619000">
        <ele>2486.6</ele>
        <time>2015-03-14T09:22:44</time>
      </trkpt>
      <trkpt lat="46.817193000" lon="10.463443000">
        <ele>2498.6</ele>
        <time>2015-03-14T09:24:31</time>
      </trkpt>
      <trkpt lat="46.817241000" lon="10.463470000">
        <ele>2501.0</ele>
        <time>2015-03-14T09:24:43</time>
      </trkpt>
      <trkpt lat="46.817357000" lon="10.463458000">
        <ele>2503.4</ele>
        <time>2015-03-14T09:25:10</time>
      </trkpt>
      <trkpt lat="46.818096000" lon="10.463139000">
        <ele>2517.3</ele>
        <time>2015-03-14T09:28:00</time>
      </trkpt>
      <trkpt lat="46.818458000" lon="10.462800000">
        <ele>2524.1</ele>
        <time>2015-03-14T09:30:02</time>
      </trkpt>
      <trkpt lat="46.818672000" lon="10.462624000">
        <ele>2527.4</ele>
        <time>2015-03-14T09:30:56</time>
      </trkpt>
      <trkpt lat="46.819036000" lon="10.462382000">
        <ele>2531.3</ele>
        <time>2015-03-14T09:32:01</time>
      </trkpt>
      <trkpt lat="46.819079000" lon="10.462338000">
        <ele>2531.8</ele>
        <time>2015-03-14T09:32:26</time>
      </trkpt>
      <trkpt lat="46.819063000" lon="10.462323000">
        <ele>2530.3</ele>
        <time>2015-03-14T09:33:45</time>
      </trkpt>
      <trkpt lat="46.819082000" lon="10.462345000">
        <ele>2530.8</ele>
        <time>2015-03-14T09:35:00</time>
      </trkpt>
      <trkpt lat="46.819218000" lon="10.462206000">
        <ele>2532.2</ele>
        <time>2015-03-14T09:35:28</time>
      </trkpt>
      <trkpt lat="46.819453000" lon="10.462114000">
        <ele>2538.0</ele>
        <time>2015-03-14T09:36:20</time>
      </trkpt>
      <trkpt lat="46.819681000" lon="10.461952000">
        <ele>2544.3</ele>
        <time>2015-03-14T09:37:27</time>
      </trkpt>
      <trkpt lat="46.820171000" lon="10.461499000">
        <ele>2556.8</ele>
        <time>2015-03-14T09:39:54</time>
      </trkpt>
      <trkpt lat="46.820205000" lon="10.461498000">
        <ele>2558.2</ele>
        <time>2015-03-14T09:40:08</time>
      </trkpt>
      <trkpt lat="46.820265000" lon="10.461714000">
        <ele>2560.6</ele>
        <time>2015-03-14T09:41:35</time>
      </trkpt>
      <trkpt lat="46.820305000" lon="10.461792000">
        <ele>2563.0</ele>
        <time>2015-03-14T09:41:51</time>
      </trkpt>
      <trkpt lat="46.820391000" lon="10.461870000">
        <ele>2565.9</ele>
        <time>2015-03-14T09:42:20</time>
      </trkpt>
      <trkpt lat="46.820440000" lon="10.461997000">
        <ele>2565.4</ele>
        <time>2015-03-14T09:49:49</time>
      </trkpt>
      <trkpt lat="46.820431000" lon="10.461959000">
        <ele>2565.4</ele>
        <time>2015-03-14T09:51:54</time>
      </trkpt>
      <trkpt lat="46.820446000" lon="10.461952000">
        <ele>2565.4</ele>
        <time>2015-03-14T09:53:42</time>
      </trkpt>
      <trkpt lat="46.820430000" lon="10.461943000">
        <ele>2565.4</ele>
        <time>2015-03-14T09:55:15</time>
      </trkpt>
      <trkpt lat="46.820479000" lon="10.461918000">
        <ele>2567.3</ele>
        <time>2015-03-14T09:56:46</time>
      </trkpt>
      <trkpt lat="46.820547000" lon="10.461918000">
        <ele>2568.3</ele>
        <time>2015-03-14T09:57:00</time>
      </trkpt>
      <trkpt lat="46.820604000" lon="10.461968000">
        <ele>2568.8</ele>
        <time>2015-03-14T09:57:13</time>
      </trkpt>
      <trkpt lat="46.820779000" lon="10.462190000">
        <ele>2573.1</ele>
        <time>2015-03-14T09:58:04</time>
      </trkpt>
      <trkpt lat="46.820857000" lon="10.462237000">
        <ele>2576.0</ele>
        <time>2015-03-14T09:58:48</time>
      </trkpt>
      <trkpt lat="46.821046000" lon="10.462544000">
        <ele>2588.5</ele>
        <time>2015-03-14T10:00:23</time>
      </trkpt>
      <trkpt lat="46.821286000" lon="10.462755000">
        <ele>2598.1</ele>
        <time>2015-03-14T10:01:54</time>
      </trkpt>
      <trkpt lat="46.821293000" lon="10.462587000">
        <ele>2600.5</ele>
        <time>2015-03-14T10:02:24</time>
      </trkpt>
      <trkpt lat="46.821316000" lon="10.462516000">
        <ele>2601.9</ele>
        <time>2015-03-14T10:02:39</time>
      </trkpt>
      <trkpt lat="46.821367000" lon="10.462464000">
        <ele>2603.9</ele>
        <time>2015-03-14T10:03:08</time>
      </trkpt>
      <trkpt lat="46.821430000" lon="10.462507000">
        <ele>2606.8</ele>
        <time>2015-03-14T10:03:52</time>
      </trkpt>
      <trkpt lat="46.821603000" lon="10.462827000">
        <ele>2614.0</ele>
        <time>2015-03-14T10:05:31</time>
      </trkpt>
      <trkpt lat="46.821637000" lon="10.462977000">
        <ele>2616.4</ele>
        <time>2015-03-14T10:05:59</time>
      </trkpt>
      <trkpt lat="46.821679000" lon="10.463062000">
        <ele>2618.3</ele>
        <time>2015-03-14T10:06:28</time>
      </trkpt>
      <trkpt lat="46.821778000" lon="10.463190000">
        <ele>2623.1</ele>
        <time>2015-03-14T10:07:11</time>
      </trkpt>
      <trkpt lat="46.821865000" lon="10.463038000">
        <ele>2627.9</ele>
        <time>2015-03-14T10:08:22</time>
      </trkpt>
      <trkpt lat="46.821935000" lon="10.463116000">
        <ele>2631.7</ele>
        <time>2015-03-14T10:08:48</time>
      </trkpt>
      <trkpt lat="46.822000000" lon="10.462906000">
        <ele>2635.6</ele>
        <time>2015-03-14T10:09:39</time>
      </trkpt>
      <trkpt lat="46.822079000" lon="10.462485000">
        <ele>2645.2</ele>
        <time>2015-03-14T10:11:15</time>
      </trkpt>
      <trkpt lat="46.822161000" lon="10.462229000">
        <ele>2651.0</ele>
        <time>2015-03-14T10:12:20</time>
      </trkpt>
      <trkpt lat="46.822299000" lon="10.461998000">
        <ele>2655.8</ele>
        <time>2015-03-14T10:14:51</time>
      </trkpt>
      <trkpt lat="46.822407000" lon="10.461864000">
        <ele>2660.6</ele>
        <time>2015-03-14T10:15:25</time>
      </trkpt>
      <trkpt lat="46.822500000" lon="10.461973000">
        <ele>2664.9</ele>
        <time>2015-03-14T10:16:18</time>
      </trkpt>
      <trkpt lat="46.822663000" lon="10.462256000">
        <ele>2671.6</ele>
        <time>2015-03-14T10:17:30</time>
      </trkpt>
      <trkpt lat="46.822892000" lon="10.463233000">
        <ele>2691.3</ele>
        <time>2015-03-14T10:21:04</time>
      </trkpt>
      <trkpt lat="46.822996000" lon="10.462989000">
        <ele>2694.2</ele>
        <time>2015-03-14T10:21:49</time>
      </trkpt>
      <trkpt lat="46.823031000" lon="10.462981000">
        <ele>2696.2</ele>
        <time>2015-03-14T10:22:09</time>
      </trkpt>
      <trkpt lat="46.823071000" lon="10.463022000">
        <ele>2697.6</ele>
        <time>2015-03-14T10:22:25</time>
      </trkpt>
      <trkpt lat="46.823093000" lon="10.463144000">
        <ele>2700.5</ele>
        <time>2015-03-14T10:23:04</time>
      </trkpt>
      <trkpt lat="46.823149000" lon="10.463186000">
        <ele>2703.8</ele>
        <time>2015-03-14T10:23:56</time>
      </trkpt>
      <trkpt lat="46.823241000" lon="10.463395000">
        <ele>2709.1</ele>
        <time>2015-03-14T10:25:37</time>
      </trkpt>
      <trkpt lat="46.823374000" lon="10.463542000">
        <ele>2717.8</ele>
        <time>2015-03-14T10:27:15</time>
      </trkpt>
      <trkpt lat="46.823401000" lon="10.463517000">
        <ele>2718.7</ele>
        <time>2015-03-14T10:27:28</time>
      </trkpt>
      <trkpt lat="46.823421000" lon="10.463454000">
        <ele>2720.2</ele>
        <time>2015-03-14T10:27:45</time>
      </trkpt>
      <trkpt lat="46.823452000" lon="10.463434000">
        <ele>2722.1</ele>
        <time>2015-03-14T10:27:57</time>
      </trkpt>
      <trkpt lat="46.823569000" lon="10.463515000">
        <ele>2725.0</ele>
        <time>2015-03-14T10:28:46</time>
      </trkpt>
      <trkpt lat="46.823622000" lon="10.463516000">
        <ele>2727.9</ele>
        <time>2015-03-14T10:29:05</time>
      </trkpt>
      <trkpt lat="46.823616000" lon="10.463392000">
        <ele>2730.3</ele>
        <time>2015-03-14T10:29:21</time>
      </trkpt>
      <trkpt lat="46.823633000" lon="10.463366000">
        <ele>2730.3</ele>
        <time>2015-03-14T10:29:42</time>
      </trkpt>
      <trkpt lat="46.823692000" lon="10.463401000">
        <ele>2732.7</ele>
        <time>2015-03-14T10:29:56</time>
      </trkpt>
      <trkpt lat="46.823737000" lon="10.463397000">
        <ele>2734.1</ele>
        <time>2015-03-14T10:30:10</time>
      </trkpt>
      <trkpt lat="46.823772000" lon="10.463353000">
        <ele>2736.0</ele>
        <time>2015-03-14T10:30:36</time>
      </trkpt>
      <trkpt lat="46.823841000" lon="10.463372000">
        <ele>2738.9</ele>
        <time>2015-03-14T10:31:08</time>
      </trkpt>
      <trkpt lat="46.823890000" lon="10.463348000">
        <ele>2740.9</ele>
        <time>2015-03-14T10:31:24</time>
      </trkpt>
      <trkpt lat="46.823896000" lon="10.463250000">
        <ele>2743.3</ele>
        <time>2015-03-14T10:31:54</time>
      </trkpt>
      <trkpt lat="46.823990000" lon="10.463184000">
        <ele>2747.1</ele>
        <time>2015-03-14T10:32:39</time>
      </trkpt>
      <trkpt lat="46.823993000" lon="10.462951000">
        <ele>2753.8</ele>
        <time>2015-03-14T10:33:39</time>
      </trkpt>
      <trkpt lat="46.824010000" lon="10.462881000">
        <ele>2755.8</ele>
        <time>2015-03-14T10:33:51</time>
      </trkpt>
      <trkpt lat="46.824052000" lon="10.462880000">
        <ele>2758.2</ele>
        <time>2015-03-14T10:34:04</time>
      </trkpt>
      <trkpt lat="46.824079000" lon="10.462768000">
        <ele>2759.1</ele>
        <time>2015-03-14T10:34:36</time>
      </trkpt>
      <trkpt lat="46.824069000" lon="10.462764000">
        <ele>2754.8</ele>
        <time>2015-03-14T10:35:40</time>
      </trkpt>
      <trkpt lat="46.824096000" lon="10.462746000">
        <ele>2756.7</ele>
        <time>2015-03-14T10:37:39</time>
      </trkpt>
      <trkpt lat="46.824072000" lon="10.462749000">
        <ele>2757.2</ele>
        <time>2015-03-14T10:38:45</time>
      </trkpt>
      <trkpt lat="46.824045000" lon="10.462799000">
        <ele>2755.3</ele>
        <time>2015-03-14T10:41:30</time>
      </trkpt>
      <trkpt lat="46.824092000" lon="10.462772000">
        <ele>2753.4</ele>
        <time>2015-03-14T10:50:44</time>
      </trkpt>
      <trkpt lat="46.824053000" lon="10.462778000">
        <ele>2751.9</ele>
        <time>2015-03-14T11:02:27</time>
      </trkpt>
      <trkpt lat="46.824085000" lon="10.462768000">
        <ele>2752.4</ele>
        <time>2015-03-14T11:07:27</time>
      </trkpt>
      <trkpt lat="46.824066000" lon="10.462762000">
        <ele>2750.9</ele>
        <time>2015-03-14T11:08:23</time>
      </trkpt>
      <trkpt lat="46.824073000" lon="10.462742000">
        <ele>2751.4</ele>
        <time>2015-03-14T11:09:28</time>
      </trkpt>
      <trkpt lat="46.824042000" lon="10.462760000">
        <ele>2752.9</ele>
        <time>2015-03-14T11:14:01</time>
      </trkpt>
      <trkpt lat="46.824105000" lon="10.462752000">
        <ele>2752.9</ele>
        <time>2015-03-14T11:15:09</time>
      </trkpt>
      <trkpt lat="46.824072000" lon="10.462794000">
        <ele>2752.9</ele>
        <time>2015-03-14T11:17:29</time>
      </trkpt>
      <trkpt lat="46.824077000" lon="10.462561000">
        <ele>2750.0</ele>
        <time>2015-03-14T11:18:31</time>
      </trkpt>
      <trkpt lat="46.824192000" lon="10.462188000">
        <ele>2747.6</ele>
        <time>2015-03-14T11:19:10</time>
      </trkpt>
      <trkpt lat="46.824160000" lon="10.462080000">
        <ele>2744.7</ele>
        <time>2015-03-14T11:19:24</time>
      </trkpt>
      <trkpt lat="46.824145000" lon="10.461881000">
        <ele>2741.8</ele>
        <time>2015-03-14T11:19:28</time>
      </trkpt>
      <trkpt lat="46.824021000" lon="10.461899000">
        <ele>2737.5</ele>
        <time>2015-03-14T11:19:32</time>
      </trkpt>
      <trkpt lat="46.823959000" lon="10.461838000">
        <ele>2733.2</ele>
        <time>2015-03-14T11:19:34</time>
      </trkpt>
      <trkpt lat="46.823872000" lon="10.461855000">
        <ele>2727.9</ele>
        <time>2015-03-14T11:19:36</time>
      </trkpt>
      <trkpt lat="46.823807000" lon="10.461763000">
        <ele>2723.6</ele>
        <time>2015-03-14T11:19:38</time>
      </trkpt>
      <trkpt lat="46.823765000" lon="10.461270000">
        <ele>2718.3</ele>
        <time>2015-03-14T11:19:49</time>
      </trkpt>
      <trkpt lat="46.823724000" lon="10.461137000">
        <ele>2715.4</ele>
        <time>2015-03-14T11:19:53</time>
      </trkpt>
      <trkpt lat="46.823649000" lon="10.460995000">
        <ele>2709.6</ele>
        <time>2015-03-14T11:20:30</time>
      </trkpt>
      <trkpt lat="46.823615000" lon="10.460883000">
        <ele>2709.1</ele>
        <time>2015-03-14T11:20:32</time>
      </trkpt>
      <trkpt lat="46.823502000" lon="10.460923000">
        <ele>2704.8</ele>
        <time>2015-03-14T11:20:35</time>
      </trkpt>
      <trkpt lat="46.823427000" lon="10.460896000">
        <ele>2699.0</ele>
        <time>2015-03-14T11:20:37</time>
      </trkpt>
      <trkpt lat="46.823341000" lon="10.460575000">
        <ele>2694.7</ele>
        <time>2015-03-14T11:20:45</time>
      </trkpt>
      <trkpt lat="46.823253000" lon="10.460596000">
        <ele>2690.9</ele>
        <time>2015-03-14T11:20:48</time>
      </trkpt>
      <trkpt lat="46.823184000" lon="10.460583000">
        <ele>2686.5</ele>
        <time>2015-03-14T11:20:50</time>
      </trkpt>
      <trkpt lat="46.823159000" lon="10.460541000">
        <ele>2686.5</ele>
        <time>2015-03-14T11:20:51</time>
      </trkpt>
      <trkpt lat="46.823094000" lon="10.460546000">
        <ele>2683.7</ele>
        <time>2015-03-14T11:20:53</time>
      </trkpt>
      <trkpt lat="46.823022000" lon="10.460612000">
        <ele>2679.8</ele>
        <time>2015-03-14T11:20:55</time>
      </trkpt>
      <trkpt lat="46.822988000" lon="10.460586000">
        <ele>2679.3</ele>
        <time>2015-03-14T11:20:56</time>
      </trkpt>
      <trkpt lat="46.822930000" lon="10.460449000">
        <ele>2676.4</ele>
        <time>2015-03-14T11:20:59</time>
      </trkpt>
      <trkpt lat="46.822828000" lon="10.460476000">
        <ele>2672.6</ele>
        <time>2015-03-14T11:21:02</time>
      </trkpt>
      <trkpt lat="46.822764000" lon="10.460427000">
        <ele>2667.3</ele>
        <time>2015-03-14T11:21:04</time>
      </trkpt>
      <trkpt lat="46.822672000" lon="10.460084000">
        <ele>2657.2</ele>
        <time>2015-03-14T11:21:55</time>
      </trkpt>
      <trkpt lat="46.822636000" lon="10.459873000">
        <ele>2653.4</ele>
        <time>2015-03-14T11:21:58</time>
      </trkpt>
      <trkpt lat="46.822614000" lon="10.459537000">
        <ele>2647.1</ele>
        <time>2015-03-14T11:22:04</time>
      </trkpt>
      <trkpt lat="46.822579000" lon="10.459301000">
        <ele>2643.8</ele>
        <time>2015-03-14T11:22:07</time>
      </trkpt>
      <trkpt lat="46.822440000" lon="10.458604000">
        <ele>2635.6</ele>
        <time>2015-03-14T11:22:16</time>
      </trkpt>
      <trkpt lat="46.822421000" lon="10.458588000">
        <ele>2635.1</ele>
        <time>2015-03-14T11:22:23</time>
      </trkpt>
      <trkpt lat="46.822299000" lon="10.458610000">
        <ele>2631.7</ele>
        <time>2015-03-14T11:23:14</time>
      </trkpt>
      <trkpt lat="46.822085000" lon="10.458677000">
        <ele>2616.8</ele>
        <time>2015-03-14T11:23:18</time>
      </trkpt>
      <trkpt lat="46.821985000" lon="10.458802000">
        <ele>2609.2</ele>
        <time>2015-03-14T11:23:20</time>
      </trkpt>
      <trkpt lat="46.821923000" lon="10.458795000">
        <ele>2605.3</ele>
        <time>2015-03-14T11:23:21</time>
      </trkpt>
      <trkpt lat="46.821790000" lon="10.458636000">
        <ele>2601.9</ele>
        <time>2015-03-14T11:23:29</time>
      </trkpt>
      <trkpt lat="46.821813000" lon="10.458660000">
        <ele>2600.5</ele>
        <time>2015-03-14T11:24:05</time>
      </trkpt>
      <trkpt lat="46.821675000" lon="10.458696000">
        <ele>2594.7</ele>
        <time>2015-03-14T11:24:56</time>
      </trkpt>
      <trkpt lat="46.821528000" lon="10.458907000">
        <ele>2589.9</ele>
        <time>2015-03-14T11:25:01</time>
      </trkpt>
      <trkpt lat="46.821476000" lon="10.459135000">
        <ele>2588.0</ele>
        <time>2015-03-14T11:25:04</time>
      </trkpt>
      <trkpt lat="46.821471000" lon="10.459333000">
        <ele>2586.6</ele>
        <time>2015-03-14T11:25:09</time>
      </trkpt>
      <trkpt lat="46.821266000" lon="10.459762000">
        <ele>2577.0</ele>
        <time>2015-03-14T11:25:17</time>
      </trkpt>
      <trkpt lat="46.821250000" lon="10.459906000">
        <ele>2576.5</ele>
        <time>2015-03-14T11:25:19</time>
      </trkpt>
      <trkpt lat="46.821150000" lon="10.460099000">
        <ele>2572.1</ele>
        <time>2015-03-14T11:25:24</time>
      </trkpt>
      <trkpt lat="46.820936000" lon="10.460412000">
        <ele>2564.9</ele>
        <time>2015-03-14T11:25:30</time>
      </trkpt>
      <trkpt lat="46.820826000" lon="10.460419000">
        <ele>2564.5</ele>
        <time>2015-03-14T11:25:32</time>
      </trkpt>
      <trkpt lat="46.820411000" lon="10.460932000">
        <ele>2554.4</ele>
        <time>2015-03-14T11:25:42</time>
      </trkpt>
      <trkpt lat="46.820363000" lon="10.460969000">
        <ele>2554.4</ele>
        <time>2015-03-14T11:25:43</time>
      </trkpt>
      <trkpt lat="46.820234000" lon="10.461190000">
        <ele>2550.5</ele>
        <time>2015-03-14T11:25:47</time>
      </trkpt>
      <trkpt lat="46.820077000" lon="10.461375000">
        <ele>2544.7</ele>
        <time>2015-03-14T11:25:51</time>
      </trkpt>
      <trkpt lat="46.820059000" lon="10.461337000">
        <ele>2545.2</ele>
        <time>2015-03-14T11:26:02</time>
      </trkpt>
      <trkpt lat="46.820069000" lon="10.461321000">
        <ele>2546.2</ele>
        <time>2015-03-14T11:26:46</time>
      </trkpt>
      <trkpt lat="46.819866000" lon="10.461644000">
        <ele>2538.5</ele>
        <time>2015-03-14T11:26:55</time>
      </trkpt>
      <trkpt lat="46.819607000" lon="10.461981000">
        <ele>2530.8</ele>
        <time>2015-03-14T11:27:03</time>
      </trkpt>
      <trkpt lat="46.819521000" lon="10.462039000">
        <ele>2529.8</ele>
        <time>2015-03-14T11:27:05</time>
      </trkpt>
      <trkpt lat="46.819404000" lon="10.462166000">
        <ele>2527.9</ele>
        <time>2015-03-14T11:27:07</time>
      </trkpt>
      <trkpt lat="46.818774000" lon="10.463035000">
        <ele>2519.8</ele>
        <time>2015-03-14T11:27:17</time>
      </trkpt>
      <trkpt lat="46.818609000" lon="10.463316000">
        <ele>2517.3</ele>
        <time>2015-03-14T11:27:45</time>
      </trkpt>
      <trkpt lat="46.818469000" lon="10.463283000">
        <ele>2514.9</ele>
        <time>2015-03-14T11:27:52</time>
      </trkpt>
      <trkpt lat="46.818398000" lon="10.463355000">
        <ele>2513.0</ele>
        <time>2015-03-14T11:27:55</time>
      </trkpt>
      <trkpt lat="46.818304000" lon="10.463282000">
        <ele>2511.6</ele>
        <time>2015-03-14T11:27:58</time>
      </trkpt>
      <trkpt lat="46.818199000" lon="10.463407000">
        <ele>2510.1</ele>
        <time>2015-03-14T11:28:02</time>
      </trkpt>
      <trkpt lat="46.818150000" lon="10.463531000">
        <ele>2509.2</ele>
        <time>2015-03-14T11:28:04</time>
      </trkpt>
      <trkpt lat="46.817976000" lon="10.463602000">
        <ele>2505.3</ele>
        <time>2015-03-14T11:28:08</time>
      </trkpt>
      <trkpt lat="46.817879000" lon="10.463810000">
        <ele>2503.4</ele>
        <time>2015-03-14T11:28:12</time>
      </trkpt>
      <trkpt lat="46.817641000" lon="10.464217000">
        <ele>2496.2</ele>
        <time>2015-03-14T11:28:20</time>
      </trkpt>
      <trkpt lat="46.817471000" lon="10.464173000">
        <ele>2495.2</ele>
        <time>2015-03-14T11:28:25</time>
      </trkpt>
      <trkpt lat="46.817419000" lon="10.464244000">
        <ele>2492.8</ele>
        <time>2015-03-14T11:28:28</time>
      </trkpt>
      <trkpt lat="46.817410000" lon="10.464412000">
        <ele>2490.9</ele>
        <time>2015-03-14T11:28:33</time>
      </trkpt>
      <trkpt lat="46.817337000" lon="10.464454000">
        <ele>2487.5</ele>
        <time>2015-03-14T11:28:59</time>
      </trkpt>
      <trkpt lat="46.817221000" lon="10.464326000">
        <ele>2485.1</ele>
        <time>2015-03-14T11:29:09</time>
      </trkpt>
      <trkpt lat="46.817163000" lon="10.464451000">
        <ele>2483.7</ele>
        <time>2015-03-14T11:29:14</time>
      </trkpt>
      <trkpt lat="46.817004000" lon="10.464491000">
        <ele>2479.9</ele>
        <time>2015-03-14T11:29:20</time>
      </trkpt>
      <trkpt lat="46.816927000" lon="10.464568000">
        <ele>2477.9</ele>
        <time>2015-03-14T11:29:23</time>
      </trkpt>
      <trkpt lat="46.816828000" lon="10.464908000">
        <ele>2471.7</ele>
        <time>2015-03-14T11:29:30</time>
      </trkpt>
      <trkpt lat="46.816690000" lon="10.465203000">
        <ele>2463.0</ele>
        <time>2015-03-14T11:29:35</time>
      </trkpt>
      <trkpt lat="46.816607000" lon="10.465140000">
        <ele>2460.6</ele>
        <time>2015-03-14T11:29:38</time>
      </trkpt>
      <trkpt lat="46.816613000" lon="10.465110000">
        <ele>2457.7</ele>
        <time>2015-03-14T11:30:02</time>
      </trkpt>
      <trkpt lat="46.816624000" lon="10.465123000">
        <ele>2461.1</ele>
        <time>2015-03-14T11:30:43</time>
      </trkpt>
      <trkpt lat="46.816410000" lon="10.465286000">
        <ele>2458.7</ele>
        <time>2015-03-14T11:31:01</time>
      </trkpt>
      <trkpt lat="46.816038000" lon="10.465619000">
        <ele>2454.4</ele>
        <time>2015-03-14T11:31:10</time>
      </trkpt>
      <trkpt lat="46.815797000" lon="10.465888000">
        <ele>2451.0</ele>
        <time>2015-03-14T11:31:18</time>
      </trkpt>
      <trkpt lat="46.815712000" lon="10.465938000">
        <ele>2449.6</ele>
        <time>2015-03-14T11:32:11</time>
      </trkpt>
      <trkpt lat="46.815588000" lon="10.465936000">
        <ele>2449.1</ele>
        <time>2015-03-14T11:32:25</time>
      </trkpt>
      <trkpt lat="46.815506000" lon="10.465887000">
        <ele>2448.6</ele>
        <time>2015-03-14T11:32:34</time>
      </trkpt>
      <trkpt lat="46.815504000" lon="10.466066000">
        <ele>2446.2</ele>
        <time>2015-03-14T11:32:39</time>
      </trkpt>
      <trkpt lat="46.815685000" lon="10.466387000">
        <ele>2442.4</ele>
        <time>2015-03-14T11:32:46</time>
      </trkpt>
      <trkpt lat="46.815703000" lon="10.466573000">
        <ele>2438.5</ele>
        <time>2015-03-14T11:32:50</time>
      </trkpt>
      <trkpt lat="46.815632000" lon="10.466574000">
        <ele>2437.1</ele>
        <time>2015-03-14T11:32:52</time>
      </trkpt>
      <trkpt lat="46.815373000" lon="10.466454000">
        <ele>2434.2</ele>
        <time>2015-03-14T11:32:58</time>
      </trkpt>
      <trkpt lat="46.815164000" lon="10.466280000">
        <ele>2432.3</ele>
        <time>2015-03-14T11:33:03</time>
      </trkpt>
      <trkpt lat="46.814580000" lon="10.465912000">
        <ele>2424.1</ele>
        <time>2015-03-14T11:33:27</time>
      </trkpt>
      <trkpt lat="46.814454000" lon="10.466045000">
        <ele>2420.7</ele>
        <time>2015-03-14T11:33:33</time>
      </trkpt>
      <trkpt lat="46.814378000" lon="10.466053000">
        <ele>2419.8</ele>
        <time>2015-03-14T11:33:35</time>
      </trkpt>
      <trkpt lat="46.814307000" lon="10.466199000">
        <ele>2415.0</ele>
        <time>2015-03-14T11:33:38</time>
      </trkpt>
      <trkpt lat="46.814232000" lon="10.466233000">
        <ele>2413.0</ele>
        <time>2015-03-14T11:33:40</time>
      </trkpt>
      <trkpt lat="46.814182000" lon="10.466307000">
        <ele>2409.2</ele>
        <time>2015-03-14T11:33:42</time>
      </trkpt>
      <trkpt lat="46.814149000" lon="10.466296000">
        <ele>2408.7</ele>
        <time>2015-03-14T11:33:43</time>
      </trkpt>
      <trkpt lat="46.814083000" lon="10.466601000">
        <ele>2403.9</ele>
        <time>2015-03-14T11:33:52</time>
      </trkpt>
      <trkpt lat="46.813911000" lon="10.466919000">
        <ele>2395.7</ele>
        <time>2015-03-14T11:34:00</time>
      </trkpt>
      <trkpt lat="46.813881000" lon="10.467172000">
        <ele>2390.9</ele>
        <time>2015-03-14T11:34:04</time>
      </trkpt>
      <trkpt lat="46.813842000" lon="10.467303000">
        <ele>2385.6</ele>
        <time>2015-03-14T11:34:06</time>
      </trkpt>
      <trkpt lat="46.813765000" lon="10.467462000">
        <ele>2381.3</ele>
        <time>2015-03-14T11:34:09</time>
      </trkpt>
      <trkpt lat="46.813769000" lon="10.467580000">
        <ele>2380.8</ele>
        <time>2015-03-14T11:34:11</time>
      </trkpt>
      <trkpt lat="46.813803000" lon="10.467762000">
        <ele>2379.4</ele>
        <time>2015-03-14T11:34:15</time>
      </trkpt>
      <trkpt lat="46.813723000" lon="10.467860000">
        <ele>2376.0</ele>
        <time>2015-03-14T11:34:18</time>
      </trkpt>
      <trkpt lat="46.813587000" lon="10.467703000">
        <ele>2374.1</ele>
        <time>2015-03-14T11:34:23</time>
      </trkpt>
      <trkpt lat="46.813540000" lon="10.467708000">
        <ele>2371.7</ele>
        <time>2015-03-14T11:34:32</time>
      </trkpt>
      <trkpt lat="46.813532000" lon="10.467862000">
        <ele>2370.7</ele>
        <time>2015-03-14T11:35:01</time>
      </trkpt>
      <trkpt lat="46.813445000" lon="10.468027000">
        <ele>2366.9</ele>
        <time>2015-03-14T11:35:05</time>
      </trkpt>
      <trkpt lat="46.813340000" lon="10.468175000">
        <ele>2362.1</ele>
        <time>2015-03-14T11:35:10</time>
      </trkpt>
      <trkpt lat="46.813309000" lon="10.468183000">
        <ele>2361.1</ele>
        <time>2015-03-14T11:35:11</time>
      </trkpt>
      <trkpt lat="46.813205000" lon="10.468299000">
        <ele>2358.7</ele>
        <time>2015-03-14T11:35:15</time>
      </trkpt>
      <trkpt lat="46.813105000" lon="10.468512000">
        <ele>2352.0</ele>
        <time>2015-03-14T11:35:20</time>
      </trkpt>
      <trkpt lat="46.812802000" lon="10.468850000">
        <ele>2338.1</ele>
        <time>2015-03-14T11:35:32</time>
      </trkpt>
      <trkpt lat="46.812619000" lon="10.469113000">
        <ele>2327.0</ele>
        <time>2015-03-14T11:36:17</time>
      </trkpt>
      <trkpt lat="46.812452000" lon="10.469286000">
        <ele>2318.8</ele>
        <time>2015-03-14T11:36:24</time>
      </trkpt>
      <trkpt lat="46.812354000" lon="10.469340000">
        <ele>2315.0</ele>
        <time>2015-03-14T11:36:27</time>
      </trkpt>
      <trkpt lat="46.812260000" lon="10.469358000">
        <ele>2310.7</ele>
        <time>2015-03-14T11:36:30</time>
      </trkpt>
      <trkpt lat="46.812099000" lon="10.469633000">
        <ele>2301.5</ele>
        <time>2015-03-14T11:36:37</time>
      </trkpt>
      <trkpt lat="46.812021000" lon="10.469858000">
        <ele>2298.2</ele>
        <time>2015-03-14T11:36:41</time>
      </trkpt>
      <trkpt lat="46.811995000" lon="10.470379000">
        <ele>2294.8</ele>
        <time>2015-03-14T11:36:51</time>
      </trkpt>
      <trkpt lat="46.812038000" lon="10.470891000">
        <ele>2291.9</ele>
        <time>2015-03-14T11:37:21</time>
      </trkpt>
      <trkpt lat="46.812105000" lon="10.471384000">
        <ele>2286.2</ele>
        <time>2015-03-14T11:38:12</time>
      </trkpt>
      <trkpt lat="46.812341000" lon="10.471621000">
        <ele>2281.8</ele>
        <time>2015-03-14T11:38:51</time>
      </trkpt>
      <trkpt lat="46.812601000" lon="10.472109000">
        <ele>2277.0</ele>
        <time>2015-03-14T11:39:07</time>
      </trkpt>
      <trkpt lat="46.812620000" lon="10.472245000">
        <ele>2274.1</ele>
        <time>2015-03-14T11:39:31</time>
      </trkpt>
      <trkpt lat="46.812729000" lon="10.472495000">
        <ele>2270.8</ele>
        <time>2015-03-14T11:40:06</time>
      </trkpt>
      <trkpt lat="46.813008000" lon="10.472982000">
        <ele>2266.0</ele>
        <time>2015-03-14T11:40:46</time>
      </trkpt>
      <trkpt lat="46.812974000" lon="10.473315000">
        <ele>2255.9</ele>
        <time>2015-03-14T11:41:11</time>
      </trkpt>
      <trkpt lat="46.812910000" lon="10.473363000">
        <ele>2252.0</ele>
        <time>2015-03-14T11:41:14</time>
      </trkpt>
      <trkpt lat="46.812809000" lon="10.473259000">
        <ele>2249.1</ele>
        <time>2015-03-14T11:41:26</time>
      </trkpt>
      <trkpt lat="46.812803000" lon="10.473274000">
        <ele>2249.1</ele>
        <time>2015-03-14T11:41:51</time>
      </trkpt>
      <trkpt lat="46.812577000" lon="10.473193000">
        <ele>2244.8</ele>
        <time>2015-03-14T11:42:10</time>
      </trkpt>
      <trkpt lat="46.812777000" lon="10.473710000">
        <ele>2238.1</ele>
        <time>2015-03-14T11:42:55</time>
      </trkpt>
      <trkpt lat="46.812887000" lon="10.473943000">
        <ele>2235.2</ele>
        <time>2015-03-14T11:43:01</time>
      </trkpt>
      <trkpt lat="46.813078000" lon="10.474522000">
        <ele>2231.4</ele>
        <time>2015-03-14T11:44:02</time>
      </trkpt>
      <trkpt lat="46.813125000" lon="10.474863000">
        <ele>2229.4</ele>
        <time>2015-03-14T11:44:12</time>
      </trkpt>
      <trkpt lat="46.813131000" lon="10.475049000">
        <ele>2228.0</ele>
        <time>2015-03-14T11:46:14</time>
      </trkpt>
      <trkpt lat="46.813050000" lon="10.475055000">
        <ele>2222.2</ele>
        <time>2015-03-14T11:46:18</time>
      </trkpt>
      <trkpt lat="46.812988000" lon="10.475131000">
        <ele>2217.9</ele>
        <time>2015-03-14T11:46:21</time>
      </trkpt>
      <trkpt lat="46.812909000" lon="10.475120000">
        <ele>2212.6</ele>
        <time>2015-03-14T11:46:24</time>
      </trkpt>
      <trkpt lat="46.812867000" lon="10.475290000">
        <ele>2207.3</ele>
        <time>2015-03-14T11:46:27</time>
      </trkpt>
      <trkpt lat="46.812646000" lon="10.475123000">
        <ele>2202.5</ele>
        <time>2015-03-14T11:46:33</time>
      </trkpt>
      <trkpt lat="46.812523000" lon="10.475002000">
        <ele>2201.6</ele>
        <time>2015-03-14T11:46:39</time>
      </trkpt>
      <trkpt lat="46.812504000" lon="10.475161000">
        <ele>2197.2</ele>
        <time>2015-03-14T11:46:43</time>
      </trkpt>
      <trkpt lat="46.812469000" lon="10.475182000">
        <ele>2195.3</ele>
        <time>2015-03-14T11:46:45</time>
      </trkpt>
      <trkpt lat="46.812198000" lon="10.474970000">
        <ele>2191.9</ele>
        <time>2015-03-14T11:46:55</time>
      </trkpt>
      <trkpt lat="46.812201000" lon="10.475156000">
        <ele>2190.0</ele>
        <time>2015-03-14T11:47:00</time>
      </trkpt>
      <trkpt lat="46.812093000" lon="10.475351000">
        <ele>2184.3</ele>
        <time>2015-03-14T11:47:08</time>
      </trkpt>
      <trkpt lat="46.812030000" lon="10.475643000">
        <ele>2180.9</ele>
        <time>2015-03-14T11:47:15</time>
      </trkpt>
      <trkpt lat="46.811998000" lon="10.475630000">
        <ele>2180.9</ele>
        <time>2015-03-14T11:47:16</time>
      </trkpt>
      <trkpt lat="46.811880000" lon="10.475685000">
        <ele>2177.5</ele>
        <time>2015-03-14T11:47:20</time>
      </trkpt>
      <trkpt lat="46.811875000" lon="10.475761000">
        <ele>2177.5</ele>
        <time>2015-03-14T11:47:22</time>
      </trkpt>
      <trkpt lat="46.811825000" lon="10.475866000">
        <ele>2177.5</ele>
        <time>2015-03-14T11:47:53</time>
      </trkpt>
      <trkpt lat="46.811695000" lon="10.475755000">
        <ele>2175.1</ele>
        <time>2015-03-14T11:48:18</time>
      </trkpt>
      <trkpt lat="46.811667000" lon="10.475773000">
        <ele>2173.2</ele>
        <time>2015-03-14T11:48:20</time>
      </trkpt>
      <trkpt lat="46.811645000" lon="10.475855000">
        <ele>2171.8</ele>
        <time>2015-03-14T11:48:22</time>
      </trkpt>
      <trkpt lat="46.811510000" lon="10.475889000">
        <ele>2166.0</ele>
        <time>2015-03-14T11:48:27</time>
      </trkpt>
      <trkpt lat="46.811437000" lon="10.475999000">
        <ele>2162.6</ele>
        <time>2015-03-14T11:48:32</time>
      </trkpt>
      <trkpt lat="46.811334000" lon="10.476052000">
        <ele>2159.7</ele>
        <time>2015-03-14T11:48:36</time>
      </trkpt>
      <trkpt lat="46.811319000" lon="10.476133000">
        <ele>2159.7</ele>
        <time>2015-03-14T11:48:38</time>
      </trkpt>
      <trkpt lat="46.811254000" lon="10.476178000">
        <ele>2157.8</ele>
        <time>2015-03-14T11:48:45</time>
      </trkpt>
      <trkpt lat="46.811183000" lon="10.476193000">
        <ele>2155.4</ele>
        <time>2015-03-14T11:49:00</time>
      </trkpt>
      <trkpt lat="46.811121000" lon="10.476321000">
        <ele>2152.0</ele>
        <time>2015-03-14T11:49:28</time>
      </trkpt>
      <trkpt lat="46.810952000" lon="10.476446000">
        <ele>2145.3</ele>
        <time>2015-03-14T11:49:36</time>
      </trkpt>
      <trkpt lat="46.810881000" lon="10.476411000">
        <ele>2142.9</ele>
        <time>2015-03-14T11:49:39</time>
      </trkpt>
      <trkpt lat="46.810812000" lon="10.476341000">
        <ele>2141.0</ele>
        <time>2015-03-14T11:49:42</time>
      </trkpt>
      <trkpt lat="46.810745000" lon="10.476346000">
        <ele>2136.7</ele>
        <time>2015-03-14T11:49:52</time>
      </trkpt>
      <trkpt lat="46.810709000" lon="10.476482000">
        <ele>2134.7</ele>
        <time>2015-03-14T11:49:57</time>
      </trkpt>
      <trkpt lat="46.810638000" lon="10.476638000">
        <ele>2132.3</ele>
        <time>2015-03-14T11:50:02</time>
      </trkpt>
      <trkpt lat="46.810413000" lon="10.476846000">
        <ele>2124.7</ele>
        <time>2015-03-14T11:50:12</time>
      </trkpt>
      <trkpt lat="46.810195000" lon="10.476945000">
        <ele>2117.4</ele>
        <time>2015-03-14T11:50:20</time>
      </trkpt>
      <trkpt lat="46.809850000" lon="10.476917000">
        <ele>2111.7</ele>
        <time>2015-03-14T11:50:39</time>
      </trkpt>
      <trkpt lat="46.809827000" lon="10.477051000">
        <ele>2109.8</ele>
        <time>2015-03-14T11:50:56</time>
      </trkpt>
      <trkpt lat="46.809836000" lon="10.477085000">
        <ele>2108.3</ele>
        <time>2015-03-14T11:51:01</time>
      </trkpt>
      <trkpt lat="46.809746000" lon="10.477157000">
        <ele>2105.9</ele>
        <time>2015-03-14T11:51:06</time>
      </trkpt>
      <trkpt lat="46.809705000" lon="10.477218000">
        <ele>2105.4</ele>
        <time>2015-03-14T11:51:08</time>
      </trkpt>
      <trkpt lat="46.809640000" lon="10.477225000">
        <ele>2104.0</ele>
        <time>2015-03-14T11:51:16</time>
      </trkpt>
      <trkpt lat="46.809505000" lon="10.477002000">
        <ele>2099.2</ele>
        <time>2015-03-14T11:51:57</time>
      </trkpt>
      <trkpt lat="46.809436000" lon="10.477167000">
        <ele>2093.9</ele>
        <time>2015-03-14T11:52:13</time>
      </trkpt>
      <trkpt lat="46.809343000" lon="10.477143000">
        <ele>2091.5</ele>
        <time>2015-03-14T11:52:20</time>
      </trkpt>
      <trkpt lat="46.809319000" lon="10.477075000">
        <ele>2091.0</ele>
        <time>2015-03-14T11:52:50</time>
      </trkpt>
      <trkpt lat="46.809285000" lon="10.477069000">
        <ele>2087.6</ele>
        <time>2015-03-14T11:54:01</time>
      </trkpt>
      <trkpt lat="46.809244000" lon="10.477003000">
        <ele>2085.7</ele>
        <time>2015-03-14T11:54:37</time>
      </trkpt>
      <trkpt lat="46.809229000" lon="10.477027000">
        <ele>2084.8</ele>
        <time>2015-03-14T11:54:53</time>
      </trkpt>
      <trkpt lat="46.809224000" lon="10.476939000">
        <ele>2085.2</ele>
        <time>2015-03-14T11:55:06</time>
      </trkpt>
      <trkpt lat="46.809086000" lon="10.476784000">
        <ele>2081.9</ele>
        <time>2015-03-14T11:55:19</time>
      </trkpt>
      <trkpt lat="46.809011000" lon="10.476849000">
        <ele>2078.0</ele>
        <time>2015-03-14T11:55:27</time>
      </trkpt>
      <trkpt lat="46.808981000" lon="10.476920000">
        <ele>2073.7</ele>
        <time>2015-03-14T11:55:30</time>
      </trkpt>
      <trkpt lat="46.808938000" lon="10.476961000">
        <ele>2068.4</ele>
        <time>2015-03-14T11:55:33</time>
      </trkpt>
      <trkpt lat="46.808836000" lon="10.477195000">
        <ele>2062.2</ele>
        <time>2015-03-14T11:55:42</time>
      </trkpt>
      <trkpt lat="46.808803000" lon="10.477209000">
        <ele>2060.2</ele>
        <time>2015-03-14T11:56:28</time>
      </trkpt>
      <trkpt lat="46.808688000" lon="10.477242000">
        <ele>2055.0</ele>
        <time>2015-03-14T11:56:34</time>
      </trkpt>
      <trkpt lat="46.808641000" lon="10.477302000">
        <ele>2050.6</ele>
        <time>2015-03-14T11:56:37</time>
      </trkpt>
      <trkpt lat="46.808628000" lon="10.477375000">
        <ele>2046.8</ele>
        <time>2015-03-14T11:56:39</time>
      </trkpt>
      <trkpt lat="46.808564000" lon="10.477410000">
        <ele>2042.9</ele>
        <time>2015-03-14T11:56:42</time>
      </trkpt>
      <trkpt lat="46.808564000" lon="10.477474000">
        <ele>2038.6</ele>
        <time>2015-03-14T11:56:45</time>
      </trkpt>
      <trkpt lat="46.808496000" lon="10.477501000">
        <ele>2034.3</ele>
        <time>2015-03-14T11:56:51</time>
      </trkpt>
      <trkpt lat="46.808497000" lon="10.477552000">
        <ele>2032.4</ele>
        <time>2015-03-14T11:56:54</time>
      </trkpt>
      <trkpt lat="46.808478000" lon="10.477559000">
        <ele>2030.9</ele>
        <time>2015-03-14T11:57:28</time>
      </trkpt>
      <trkpt lat="46.808421000" lon="10.477807000">
        <ele>2022.8</ele>
        <time>2015-03-14T11:57:37</time>
      </trkpt>
      <trkpt lat="46.808266000" lon="10.477825000">
        <ele>2021.3</ele>
        <time>2015-03-14T11:57:40</time>
      </trkpt>
      <trkpt lat="46.808001000" lon="10.477801000">
        <ele>2018.9</ele>
        <time>2015-03-14T11:58:15</time>
      </trkpt>
      <trkpt lat="46.808045000" lon="10.477944000">
        <ele>2014.6</ele>
        <time>2015-03-14T11:58:20</time>
      </trkpt>
      <trkpt lat="46.807992000" lon="10.478036000">
        <ele>2009.8</ele>
        <time>2015-03-14T11:58:23</time>
      </trkpt>
      <trkpt lat="46.807977000" lon="10.478131000">
        <ele>2005.9</ele>
        <time>2015-03-14T11:58:25</time>
      </trkpt>
      <trkpt lat="46.807828000" lon="10.478238000">
        <ele>2001.1</ele>
        <time>2015-03-14T11:58:34</time>
      </trkpt>
      <trkpt lat="46.807742000" lon="10.478162000">
        <ele>1997.3</ele>
        <time>2015-03-14T11:58:40</time>
      </trkpt>
      <trkpt lat="46.807697000" lon="10.478149000">
        <ele>1996.8</ele>
        <time>2015-03-14T11:58:45</time>
      </trkpt>
      <trkpt lat="46.807600000" lon="10.478183000">
        <ele>1991.0</ele>
        <time>2015-03-14T11:58:49</time>
      </trkpt>
      <trkpt lat="46.807550000" lon="10.478039000">
        <ele>1990.1</ele>
        <time>2015-03-14T11:58:54</time>
      </trkpt>
      <trkpt lat="46.807324000" lon="10.477976000">
        <ele>1987.2</ele>
        <time>2015-03-14T11:59:11</time>
      </trkpt>
      <trkpt lat="46.807241000" lon="10.478164000">
        <ele>1981.9</ele>
        <time>2015-03-14T11:59:17</time>
      </trkpt>
      <trkpt lat="46.807216000" lon="10.478280000">
        <ele>1977.6</ele>
        <time>2015-03-14T11:59:20</time>
      </trkpt>
      <trkpt lat="46.807167000" lon="10.478259000">
        <ele>1975.6</ele>
        <time>2015-03-14T11:59:34</time>
      </trkpt>
      <trkpt lat="46.807086000" lon="10.478350000">
        <ele>1972.3</ele>
        <time>2015-03-14T11:59:38</time>
      </trkpt>
      <trkpt lat="46.807024000" lon="10.478352000">
        <ele>1970.4</ele>
        <time>2015-03-14T11:59:46</time>
      </trkpt>
      <trkpt lat="46.806996000" lon="10.478257000">
        <ele>1968.9</ele>
        <time>2015-03-14T11:59:50</time>
      </trkpt>
      <trkpt lat="46.807009000" lon="10.477975000">
        <ele>1967.5</ele>
        <time>2015-03-14T12:00:07</time>
      </trkpt>
      <trkpt lat="46.806889000" lon="10.477877000">
        <ele>1966.5</ele>
        <time>2015-03-14T12:00:15</time>
      </trkpt>
      <trkpt lat="46.806764000" lon="10.477982000">
        <ele>1967.5</ele>
        <time>2015-03-14T12:00:49</time>
      </trkpt>
      <trkpt lat="46.806652000" lon="10.478033000">
        <ele>1968.9</ele>
        <time>2015-03-14T12:01:14</time>
      </trkpt>
      <trkpt lat="46.806151000" lon="10.478027000">
        <ele>1966.0</ele>
        <time>2015-03-14T12:02:11</time>
      </trkpt>
      <trkpt lat="46.805926000" lon="10.477998000">
        <ele>1963.1</ele>
        <time>2015-03-14T12:02:16</time>
      </trkpt>
      <trkpt lat="46.805607000" lon="10.477875000">
        <ele>1960.7</ele>
        <time>2015-03-14T12:02:27</time>
      </trkpt>
      <trkpt lat="46.805577000" lon="10.477845000">
        <ele>1960.3</ele>
        <time>2015-03-14T12:02:29</time>
      </trkpt>
      <trkpt lat="46.805451000" lon="10.477570000">
        <ele>1959.8</ele>
        <time>2015-03-14T12:02:49</time>
      </trkpt>
      <trkpt lat="46.805027000" lon="10.477947000">
        <ele>1951.6</ele>
        <time>2015-03-14T12:06:47</time>
      </trkpt>
      <trkpt lat="46.805004000" lon="10.477887000">
        <ele>1951.6</ele>
        <time>2015-03-14T12:07:48</time>
      </trkpt>
      <trkpt lat="46.805027000" lon="10.477947000">
        <ele>1952.6</ele>
        <time>2015-03-14T12:08:46</time>
      </trkpt>
    </trkseg>
  </trk>
</gpx>
